sensor_id;sensor_type;location;lat;lon;timestamp;P1;durP1;ratioP1;P2;durP2;ratioP2
16665;SDS011;8446;50.998;6.250;2022-11-15T00:01:24;17.63;;;10.07;;
16665;SDS011;8446;50.998;6.250;2022-11-15T00:03:51;20.88;;;11.10;;
16665;SDS011;8446;50.998;6.250;2022-11-15T00:06:18;18.92;;;11.40;;
16665;SDS011;8446;50.998;6.250;2022-11-15T00:08:45;19.70;;;10.50;;
16665;SDS011;8446;50.998;6.250;2022-11-15T00:11:13;17.48;;;9.73;;
16665;SDS011;8446;50.998;6.250;2022-11-15T00:13:40;12.83;;;9.30;;
16665;SDS011;8446;50.998;6.250;2022-11-15T00:16:09;17.85;;;11.13;;
16665;SDS011;8446;50.998;6.250;2022-11-15T00:18:37;15.67;;;9.17;;
16665;SDS011;8446;50.998;6.250;2022-11-15T00:21:05;18.63;;;10.47;;
16665;SDS011;8446;50.998;6.250;2022-11-15T00:23:32;15.83;;;9.67;;
16665;SDS011;8446;50.998;6.250;2022-11-15T00:25:59;20.40;;;10.50;;
16665;SDS011;8446;50.998;6.250;2022-11-15T00:28:26;17.70;;;10.50;;
16665;SDS011;8446;50.998;6.250;2022-11-15T00:30:59;13.00;;;9.30;;
16665;SDS011;8446;50.998;6.250;2022-11-15T00:33:27;14.40;;;9.33;;
16665;SDS011;8446;50.998;6.250;2022-11-15T00:35:58;15.10;;;9.20;;
16665;SDS011;8446;50.998;6.250;2022-11-15T00:38:26;22.00;;;9.60;;
16665;SDS011;8446;50.998;6.250;2022-11-15T00:40:56;14.32;;;9.40;;
16665;SDS011;8446;50.998;6.250;2022-11-15T00:43:23;17.73;;;10.63;;
16665;SDS011;8446;50.998;6.250;2022-11-15T00:45:51;19.67;;;10.53;;
16665;SDS011;8446;50.998;6.250;2022-11-15T00:48:18;16.93;;;9.70;;
16665;SDS011;8446;50.998;6.250;2022-11-15T00:50:46;15.27;;;10.47;;
16665;SDS011;8446;50.998;6.250;2022-11-15T00:53:14;19.27;;;10.23;;
16665;SDS011;8446;50.998;6.250;2022-11-15T00:55:41;20.40;;;9.60;;
16665;SDS011;8446;50.998;6.250;2022-11-15T00:58:08;17.90;;;8.80;;
16665;SDS011;8446;50.998;6.250;2022-11-15T01:00:35;16.33;;;9.17;;
16665;SDS011;8446;50.998;6.250;2022-11-15T01:03:02;21.80;;;10.57;;
16665;SDS011;8446;50.998;6.250;2022-11-15T01:05:29;16.13;;;9.93;;
16665;SDS011;8446;50.998;6.250;2022-11-15T01:07:58;13.37;;;9.67;;
16665;SDS011;8446;50.998;6.250;2022-11-15T01:10:25;17.83;;;9.65;;
16665;SDS011;8446;50.998;6.250;2022-11-15T01:12:52;16.87;;;10.60;;
16665;SDS011;8446;50.998;6.250;2022-11-15T01:15:19;18.08;;;9.90;;
16665;SDS011;8446;50.998;6.250;2022-11-15T01:17:46;17.00;;;9.85;;
16665;SDS011;8446;50.998;6.250;2022-11-15T01:20:13;16.20;;;9.20;;
16665;SDS011;8446;50.998;6.250;2022-11-15T01:22:40;18.53;;;9.90;;
16665;SDS011;8446;50.998;6.250;2022-11-15T01:25:09;18.00;;;10.37;;
16665;SDS011;8446;50.998;6.250;2022-11-15T01:27:36;14.80;;;9.70;;
16665;SDS011;8446;50.998;6.250;2022-11-15T01:30:04;13.40;;;8.63;;
16665;SDS011;8446;50.998;6.250;2022-11-15T01:32:31;13.52;;;8.80;;
16665;SDS011;8446;50.998;6.250;2022-11-15T01:34:58;15.37;;;9.03;;
16665;SDS011;8446;50.998;6.250;2022-11-15T01:37:25;17.20;;;9.80;;
16665;SDS011;8446;50.998;6.250;2022-11-15T01:39:52;21.43;;;10.20;;
16665;SDS011;8446;50.998;6.250;2022-11-15T01:42:21;21.27;;;9.67;;
16665;SDS011;8446;50.998;6.250;2022-11-15T01:44:49;14.43;;;8.65;;
16665;SDS011;8446;50.998;6.250;2022-11-15T01:47:17;13.55;;;8.30;;
16665;SDS011;8446;50.998;6.250;2022-11-15T01:49:48;16.42;;;9.43;;
16665;SDS011;8446;50.998;6.250;2022-11-15T01:52:17;18.17;;;8.70;;
16665;SDS011;8446;50.998;6.250;2022-11-15T01:54:45;16.38;;;7.97;;
16665;SDS011;8446;50.998;6.250;2022-11-15T01:57:13;12.27;;;8.38;;
16665;SDS011;8446;50.998;6.250;2022-11-15T01:59:42;14.75;;;8.88;;
16665;SDS011;8446;50.998;6.250;2022-11-15T02:02:10;11.60;;;8.53;;
16665;SDS011;8446;50.998;6.250;2022-11-15T02:04:37;13.90;;;9.02;;
16665;SDS011;8446;50.998;6.250;2022-11-15T02:07:06;16.30;;;9.32;;
16665;SDS011;8446;50.998;6.250;2022-11-15T02:09:35;11.75;;;8.00;;
16665;SDS011;8446;50.998;6.250;2022-11-15T02:12:03;12.20;;;7.87;;
16665;SDS011;8446;50.998;6.250;2022-11-15T02:14:30;17.63;;;7.63;;
16665;SDS011;8446;50.998;6.250;2022-11-15T02:17:01;19.40;;;8.87;;
16665;SDS011;8446;50.998;6.250;2022-11-15T02:19:35;20.53;;;9.30;;
16665;SDS011;8446;50.998;6.250;2022-11-15T02:22:10;15.50;;;9.07;;
16665;SDS011;8446;50.998;6.250;2022-11-15T02:24:45;16.00;;;8.73;;
16665;SDS011;8446;50.998;6.250;2022-11-15T02:27:26;16.67;;;8.20;;
16665;SDS011;8446;50.998;6.250;2022-11-15T02:32:43;13.93;;;7.90;;
16665;SDS011;8446;50.998;6.250;2022-11-15T02:35:14;15.30;;;8.23;;
16665;SDS011;8446;50.998;6.250;2022-11-15T02:37:44;13.73;;;8.20;;
16665;SDS011;8446;50.998;6.250;2022-11-15T02:40:17;16.40;;;8.90;;
16665;SDS011;8446;50.998;6.250;2022-11-15T02:42:50;11.00;;;7.50;;
16665;SDS011;8446;50.998;6.250;2022-11-15T02:45:39;16.50;;;8.20;;
16665;SDS011;8446;50.998;6.250;2022-11-15T02:48:08;16.07;;;8.67;;
16665;SDS011;8446;50.998;6.250;2022-11-15T02:50:36;12.40;;;8.43;;
16665;SDS011;8446;50.998;6.250;2022-11-15T02:53:03;14.83;;;9.10;;
16665;SDS011;8446;50.998;6.250;2022-11-15T02:55:31;13.33;;;8.60;;
16665;SDS011;8446;50.998;6.250;2022-11-15T02:58:03;13.90;;;8.17;;
16665;SDS011;8446;50.998;6.250;2022-11-15T03:00:34;12.87;;;8.10;;
16665;SDS011;8446;50.998;6.250;2022-11-15T03:03:06;13.27;;;8.60;;
16665;SDS011;8446;50.998;6.250;2022-11-15T03:05:41;16.53;;;8.97;;
16665;SDS011;8446;50.998;6.250;2022-11-15T03:08:10;14.93;;;8.33;;
16665;SDS011;8446;50.998;6.250;2022-11-15T03:10:40;13.50;;;7.27;;
16665;SDS011;8446;50.998;6.250;2022-11-15T03:13:12;12.00;;;7.77;;
16665;SDS011;8446;50.998;6.250;2022-11-15T03:15:44;10.87;;;6.90;;
16665;SDS011;8446;50.998;6.250;2022-11-15T03:18:15;11.63;;;6.10;;
16665;SDS011;8446;50.998;6.250;2022-11-15T03:20:47;9.07;;;6.20;;
16665;SDS011;8446;50.998;6.250;2022-11-15T03:23:15;10.30;;;6.00;;
16665;SDS011;8446;50.998;6.250;2022-11-15T03:25:43;12.73;;;6.70;;
16665;SDS011;8446;50.998;6.250;2022-11-15T03:28:12;12.50;;;5.67;;
16665;SDS011;8446;50.998;6.250;2022-11-15T03:30:40;10.60;;;6.40;;
16665;SDS011;8446;50.998;6.250;2022-11-15T03:33:08;12.07;;;5.80;;
16665;SDS011;8446;50.998;6.250;2022-11-15T03:35:38;8.70;;;5.70;;
16665;SDS011;8446;50.998;6.250;2022-11-15T03:38:08;7.77;;;5.43;;
16665;SDS011;8446;50.998;6.250;2022-11-15T03:40:38;8.33;;;5.70;;
16665;SDS011;8446;50.998;6.250;2022-11-15T03:43:07;10.43;;;5.30;;
16665;SDS011;8446;50.998;6.250;2022-11-15T03:45:35;10.60;;;5.30;;
16665;SDS011;8446;50.998;6.250;2022-11-15T03:48:05;10.73;;;5.10;;
16665;SDS011;8446;50.998;6.250;2022-11-15T03:50:34;13.17;;;5.83;;
16665;SDS011;8446;50.998;6.250;2022-11-15T03:53:01;8.80;;;4.87;;
16665;SDS011;8446;50.998;6.250;2022-11-15T03:55:31;8.23;;;5.30;;
16665;SDS011;8446;50.998;6.250;2022-11-15T03:57:59;8.23;;;4.90;;
16665;SDS011;8446;50.998;6.250;2022-11-15T04:00:27;6.97;;;4.63;;
16665;SDS011;8446;50.998;6.250;2022-11-15T04:02:54;8.70;;;5.30;;
16665;SDS011;8446;50.998;6.250;2022-11-15T04:05:22;8.33;;;5.50;;
16665;SDS011;8446;50.998;6.250;2022-11-15T04:07:49;11.20;;;6.10;;
16665;SDS011;8446;50.998;6.250;2022-11-15T04:10:16;10.33;;;4.93;;
16665;SDS011;8446;50.998;6.250;2022-11-15T04:12:45;6.03;;;4.60;;
16665;SDS011;8446;50.998;6.250;2022-11-15T04:15:13;9.60;;;5.37;;
16665;SDS011;8446;50.998;6.250;2022-11-15T04:17:41;9.13;;;6.20;;
16665;SDS011;8446;50.998;6.250;2022-11-15T04:20:10;9.33;;;5.30;;
16665;SDS011;8446;50.998;6.250;2022-11-15T04:22:56;11.03;;;5.57;;
16665;SDS011;8446;50.998;6.250;2022-11-15T04:25:41;9.67;;;5.90;;
16665;SDS011;8446;50.998;6.250;2022-11-15T04:28:09;8.70;;;5.30;;
16665;SDS011;8446;50.998;6.250;2022-11-15T04:30:37;6.70;;;4.53;;
16665;SDS011;8446;50.998;6.250;2022-11-15T04:33:04;12.03;;;5.70;;
16665;SDS011;8446;50.998;6.250;2022-11-15T04:35:31;7.67;;;4.63;;
16665;SDS011;8446;50.998;6.250;2022-11-15T04:37:58;5.67;;;4.90;;
16665;SDS011;8446;50.998;6.250;2022-11-15T04:40:25;7.10;;;5.40;;
16665;SDS011;8446;50.998;6.250;2022-11-15T04:42:52;8.87;;;5.67;;
16665;SDS011;8446;50.998;6.250;2022-11-15T04:45:21;8.53;;;5.77;;
16665;SDS011;8446;50.998;6.250;2022-11-15T04:47:48;7.60;;;5.10;;
16665;SDS011;8446;50.998;6.250;2022-11-15T04:50:15;7.10;;;5.13;;
16665;SDS011;8446;50.998;6.250;2022-11-15T04:52:43;8.13;;;5.30;;
16665;SDS011;8446;50.998;6.250;2022-11-15T04:55:11;6.77;;;4.93;;
16665;SDS011;8446;50.998;6.250;2022-11-15T04:57:38;7.43;;;5.63;;
16665;SDS011;8446;50.998;6.250;2022-11-15T05:00:06;8.57;;;6.07;;
16665;SDS011;8446;50.998;6.250;2022-11-15T05:02:35;9.93;;;5.87;;
16665;SDS011;8446;50.998;6.250;2022-11-15T05:05:19;10.43;;;5.77;;
16665;SDS011;8446;50.998;6.250;2022-11-15T05:07:46;13.30;;;5.00;;
16665;SDS011;8446;50.998;6.250;2022-11-15T05:10:13;8.30;;;5.93;;
16665;SDS011;8446;50.998;6.250;2022-11-15T05:12:41;10.23;;;6.67;;
16665;SDS011;8446;50.998;6.250;2022-11-15T05:15:08;7.57;;;5.70;;
16665;SDS011;8446;50.998;6.250;2022-11-15T05:17:37;11.47;;;7.30;;
16665;SDS011;8446;50.998;6.250;2022-11-15T05:20:04;14.33;;;7.60;;
16665;SDS011;8446;50.998;6.250;2022-11-15T05:22:31;14.03;;;6.07;;
16665;SDS011;8446;50.998;6.250;2022-11-15T05:24:59;10.37;;;7.17;;
16665;SDS011;8446;50.998;6.250;2022-11-15T05:27:26;10.37;;;6.73;;
16665;SDS011;8446;50.998;6.250;2022-11-15T05:29:53;9.63;;;6.73;;
16665;SDS011;8446;50.998;6.250;2022-11-15T05:32:20;12.73;;;7.33;;
16665;SDS011;8446;50.998;6.250;2022-11-15T05:34:48;10.60;;;6.53;;
16665;SDS011;8446;50.998;6.250;2022-11-15T05:37:15;17.50;;;6.33;;
16665;SDS011;8446;50.998;6.250;2022-11-15T05:39:43;7.83;;;5.97;;
16665;SDS011;8446;50.998;6.250;2022-11-15T05:42:11;15.30;;;6.17;;
16665;SDS011;8446;50.998;6.250;2022-11-15T05:44:39;7.13;;;5.37;;
16665;SDS011;8446;50.998;6.250;2022-11-15T05:47:08;7.70;;;5.33;;
16665;SDS011;8446;50.998;6.250;2022-11-15T05:49:36;15.10;;;5.87;;
16665;SDS011;8446;50.998;6.250;2022-11-15T05:52:06;7.70;;;5.40;;
16665;SDS011;8446;50.998;6.250;2022-11-15T05:54:34;6.80;;;5.10;;
16665;SDS011;8446;50.998;6.250;2022-11-15T05:57:02;8.93;;;5.60;;
16665;SDS011;8446;50.998;6.250;2022-11-15T05:59:30;6.60;;;5.00;;
16665;SDS011;8446;50.998;6.250;2022-11-15T06:01:58;7.87;;;5.80;;
16665;SDS011;8446;50.998;6.250;2022-11-15T06:04:25;8.80;;;5.10;;
16665;SDS011;8446;50.998;6.250;2022-11-15T06:06:53;7.87;;;4.43;;
16665;SDS011;8446;50.998;6.250;2022-11-15T06:09:21;4.60;;;3.10;;
16665;SDS011;8446;50.998;6.250;2022-11-15T06:11:48;3.23;;;2.33;;
16665;SDS011;8446;50.998;6.250;2022-11-15T06:14:15;2.80;;;2.37;;
16665;SDS011;8446;50.998;6.250;2022-11-15T06:16:43;3.53;;;2.20;;
16665;SDS011;8446;50.998;6.250;2022-11-15T06:19:10;1.27;;;1.17;;
16665;SDS011;8446;50.998;6.250;2022-11-15T06:21:37;0.93;;;0.93;;
16665;SDS011;8446;50.998;6.250;2022-11-15T06:24:05;1.00;;;0.90;;
16665;SDS011;8446;50.998;6.250;2022-11-15T06:26:33;1.33;;;0.80;;
16665;SDS011;8446;50.998;6.250;2022-11-15T06:29:02;0.70;;;0.70;;
16665;SDS011;8446;50.998;6.250;2022-11-15T06:31:29;1.17;;;1.07;;
16665;SDS011;8446;50.998;6.250;2022-11-15T06:33:56;1.53;;;1.10;;
16665;SDS011;8446;50.998;6.250;2022-11-15T06:36:23;1.00;;;0.90;;
16665;SDS011;8446;50.998;6.250;2022-11-15T06:38:50;0.70;;;0.70;;
16665;SDS011;8446;50.998;6.250;2022-11-15T06:41:18;1.40;;;1.07;;
16665;SDS011;8446;50.998;6.250;2022-11-15T06:43:47;3.00;;;0.90;;
16665;SDS011;8446;50.998;6.250;2022-11-15T06:46:14;1.03;;;0.93;;
16665;SDS011;8446;50.998;6.250;2022-11-15T06:48:41;1.10;;;0.87;;
16665;SDS011;8446;50.998;6.250;2022-11-15T06:51:08;1.33;;;1.00;;
16665;SDS011;8446;50.998;6.250;2022-11-15T06:53:35;0.93;;;0.80;;
16665;SDS011;8446;50.998;6.250;2022-11-15T06:56:03;1.23;;;0.93;;
16665;SDS011;8446;50.998;6.250;2022-11-15T06:58:31;0.90;;;0.80;;
16665;SDS011;8446;50.998;6.250;2022-11-15T07:01:00;1.47;;;0.93;;
16665;SDS011;8446;50.998;6.250;2022-11-15T07:03:27;1.13;;;1.03;;
16665;SDS011;8446;50.998;6.250;2022-11-15T07:05:55;1.03;;;0.93;;
16665;SDS011;8446;50.998;6.250;2022-11-15T07:08:23;1.23;;;1.00;;
16665;SDS011;8446;50.998;6.250;2022-11-15T07:10:50;0.90;;;0.90;;
16665;SDS011;8446;50.998;6.250;2022-11-15T07:13:17;0.90;;;0.90;;
16665;SDS011;8446;50.998;6.250;2022-11-15T07:15:44;1.27;;;1.17;;
16665;SDS011;8446;50.998;6.250;2022-11-15T07:18:13;1.20;;;1.10;;
16665;SDS011;8446;50.998;6.250;2022-11-15T07:20:40;1.40;;;1.30;;
16665;SDS011;8446;50.998;6.250;2022-11-15T07:23:07;1.10;;;1.00;;
16665;SDS011;8446;50.998;6.250;2022-11-15T07:25:34;1.33;;;1.23;;
16665;SDS011;8446;50.998;6.250;2022-11-15T07:28:01;3.30;;;1.40;;
16665;SDS011;8446;50.998;6.250;2022-11-15T07:30:29;1.67;;;1.47;;
16665;SDS011;8446;50.998;6.250;2022-11-15T07:32:56;2.70;;;1.10;;
16665;SDS011;8446;50.998;6.250;2022-11-15T07:35:26;1.23;;;1.13;;
16665;SDS011;8446;50.998;6.250;2022-11-15T07:37:54;1.43;;;1.10;;
16665;SDS011;8446;50.998;6.250;2022-11-15T07:40:21;1.10;;;1.00;;
16665;SDS011;8446;50.998;6.250;2022-11-15T07:42:48;2.47;;;1.10;;
16665;SDS011;8446;50.998;6.250;2022-11-15T07:45:18;1.37;;;1.10;;
16665;SDS011;8446;50.998;6.250;2022-11-15T07:47:46;1.33;;;1.23;;
16665;SDS011;8446;50.998;6.250;2022-11-15T07:50:13;1.47;;;1.37;;
16665;SDS011;8446;50.998;6.250;2022-11-15T07:52:41;2.97;;;1.10;;
16665;SDS011;8446;50.998;6.250;2022-11-15T07:55:09;1.33;;;1.17;;
16665;SDS011;8446;50.998;6.250;2022-11-15T07:57:36;1.30;;;1.20;;
16665;SDS011;8446;50.998;6.250;2022-11-15T08:00:03;2.67;;;1.30;;
16665;SDS011;8446;50.998;6.250;2022-11-15T08:02:31;1.03;;;0.93;;
16665;SDS011;8446;50.998;6.250;2022-11-15T08:04:58;2.43;;;1.30;;
16665;SDS011;8446;50.998;6.250;2022-11-15T08:07:27;2.77;;;1.10;;
16665;SDS011;8446;50.998;6.250;2022-11-15T08:09:56;2.83;;;0.90;;
16665;SDS011;8446;50.998;6.250;2022-11-15T08:12:23;1.03;;;0.93;;
16665;SDS011;8446;50.998;6.250;2022-11-15T08:14:50;5.70;;;1.03;;
16665;SDS011;8446;50.998;6.250;2022-11-15T08:17:17;4.40;;;1.33;;
16665;SDS011;8446;50.998;6.250;2022-11-15T08:19:44;1.20;;;1.07;;
16665;SDS011;8446;50.998;6.250;2022-11-15T08:22:12;1.50;;;1.20;;
16665;SDS011;8446;50.998;6.250;2022-11-15T08:24:39;2.60;;;1.20;;
16665;SDS011;8446;50.998;6.250;2022-11-15T08:27:07;3.43;;;1.30;;
16665;SDS011;8446;50.998;6.250;2022-11-15T08:29:39;5.17;;;1.27;;
16665;SDS011;8446;50.998;6.250;2022-11-15T08:32:06;1.70;;;1.07;;
16665;SDS011;8446;50.998;6.250;2022-11-15T08:34:33;2.03;;;1.60;;
16665;SDS011;8446;50.998;6.250;2022-11-15T08:37:01;1.53;;;1.00;;
16665;SDS011;8446;50.998;6.250;2022-11-15T08:39:28;1.07;;;0.97;;
16665;SDS011;8446;50.998;6.250;2022-11-15T08:41:55;3.13;;;1.10;;
16665;SDS011;8446;50.998;6.250;2022-11-15T08:44:23;2.80;;;1.30;;
16665;SDS011;8446;50.998;6.250;2022-11-15T08:46:50;1.53;;;1.17;;
16665;SDS011;8446;50.998;6.250;2022-11-15T08:49:17;5.63;;;1.00;;
16665;SDS011;8446;50.998;6.250;2022-11-15T08:51:45;1.63;;;1.00;;
16665;SDS011;8446;50.998;6.250;2022-11-15T08:54:12;2.67;;;1.10;;
16665;SDS011;8446;50.998;6.250;2022-11-15T08:56:39;1.23;;;1.00;;
16665;SDS011;8446;50.998;6.250;2022-11-15T08:59:06;1.00;;;0.83;;
16665;SDS011;8446;50.998;6.250;2022-11-15T09:01:34;2.27;;;1.20;;
16665;SDS011;8446;50.998;6.250;2022-11-15T09:04:01;1.10;;;0.90;;
16665;SDS011;8446;50.998;6.250;2022-11-15T09:06:29;1.00;;;0.80;;
16665;SDS011;8446;50.998;6.250;2022-11-15T09:08:57;1.90;;;1.10;;
16665;SDS011;8446;50.998;6.250;2022-11-15T09:11:24;6.00;;;1.03;;
16665;SDS011;8446;50.998;6.250;2022-11-15T09:13:51;4.70;;;1.10;;
16665;SDS011;8446;50.998;6.250;2022-11-15T09:16:19;2.97;;;1.27;;
16665;SDS011;8446;50.998;6.250;2022-11-15T09:18:47;3.07;;;1.03;;
16665;SDS011;8446;50.998;6.250;2022-11-15T09:21:14;1.27;;;0.97;;
16665;SDS011;8446;50.998;6.250;2022-11-15T09:23:41;1.30;;;1.20;;
16665;SDS011;8446;50.998;6.250;2022-11-15T09:26:08;6.80;;;1.80;;
16665;SDS011;8446;50.998;6.250;2022-11-15T09:28:35;4.20;;;1.50;;
16665;SDS011;8446;50.998;6.250;2022-11-15T09:31:04;3.63;;;1.27;;
16665;SDS011;8446;50.998;6.250;2022-11-15T09:33:31;2.33;;;1.30;;
16665;SDS011;8446;50.998;6.250;2022-11-15T09:36:03;3.07;;;1.00;;
16665;SDS011;8446;50.998;6.250;2022-11-15T09:38:31;7.97;;;1.00;;
16665;SDS011;8446;50.998;6.250;2022-11-15T09:41:08;3.57;;;1.43;;
16665;SDS011;8446;50.998;6.250;2022-11-15T09:43:41;3.83;;;1.03;;
16665;SDS011;8446;50.998;6.250;2022-11-15T09:46:12;1.97;;;1.40;;
16665;SDS011;8446;50.998;6.250;2022-11-15T09:48:48;1.27;;;1.10;;
16665;SDS011;8446;50.998;6.250;2022-11-15T09:51:21;4.50;;;1.40;;
16665;SDS011;8446;50.998;6.250;2022-11-15T09:53:52;3.83;;;1.27;;
16665;SDS011;8446;50.998;6.250;2022-11-15T09:56:25;2.53;;;1.10;;
16665;SDS011;8446;50.998;6.250;2022-11-15T09:58:54;1.10;;;1.00;;
16665;SDS011;8446;50.998;6.250;2022-11-15T10:01:33;2.67;;;1.20;;
16665;SDS011;8446;50.998;6.250;2022-11-15T10:04:03;2.10;;;1.07;;
16665;SDS011;8446;50.998;6.250;2022-11-15T10:06:32;3.63;;;1.20;;
16665;SDS011;8446;50.998;6.250;2022-11-15T10:09:02;2.60;;;1.00;;
16665;SDS011;8446;50.998;6.250;2022-11-15T10:11:32;6.20;;;1.30;;
16665;SDS011;8446;50.998;6.250;2022-11-15T10:14:00;1.03;;;0.80;;
16665;SDS011;8446;50.998;6.250;2022-11-15T10:19:15;2.60;;;1.20;;
16665;SDS011;8446;50.998;6.250;2022-11-15T10:21:49;16.33;;;1.87;;
16665;SDS011;8446;50.998;6.250;2022-11-15T10:24:20;10.73;;;1.73;;
16665;SDS011;8446;50.998;6.250;2022-11-15T10:26:50;5.63;;;1.10;;
16665;SDS011;8446;50.998;6.250;2022-11-15T10:29:18;7.20;;;2.00;;
16665;SDS011;8446;50.998;6.250;2022-11-15T10:31:46;2.77;;;1.00;;
16665;SDS011;8446;50.998;6.250;2022-11-15T10:34:14;13.90;;;1.60;;
16665;SDS011;8446;50.998;6.250;2022-11-15T10:36:43;24.53;;;2.10;;
16665;SDS011;8446;50.998;6.250;2022-11-15T10:39:13;1.70;;;0.93;;
16665;SDS011;8446;50.998;6.250;2022-11-15T10:41:41;2.23;;;0.90;;
16665;SDS011;8446;50.998;6.250;2022-11-15T10:44:10;5.77;;;1.60;;
16665;SDS011;8446;50.998;6.250;2022-11-15T10:46:38;0.90;;;0.80;;
16665;SDS011;8446;50.998;6.250;2022-11-15T10:49:12;2.83;;;1.00;;
16665;SDS011;8446;50.998;6.250;2022-11-15T10:51:40;4.00;;;1.00;;
16665;SDS011;8446;50.998;6.250;2022-11-15T10:54:08;1.90;;;1.00;;
16665;SDS011;8446;50.998;6.250;2022-11-15T10:56:39;3.90;;;0.97;;
16665;SDS011;8446;50.998;6.250;2022-11-15T10:59:13;1.00;;;0.70;;
16665;SDS011;8446;50.998;6.250;2022-11-15T11:01:45;4.30;;;1.10;;
16665;SDS011;8446;50.998;6.250;2022-11-15T11:04:12;3.80;;;1.23;;
16665;SDS011;8446;50.998;6.250;2022-11-15T11:06:46;2.23;;;0.90;;
16665;SDS011;8446;50.998;6.250;2022-11-15T11:09:21;2.80;;;1.20;;
16665;SDS011;8446;50.998;6.250;2022-11-15T11:11:50;1.43;;;0.97;;
16665;SDS011;8446;50.998;6.250;2022-11-15T11:14:20;1.63;;;0.80;;
16665;SDS011;8446;50.998;6.250;2022-11-15T11:16:49;1.20;;;0.80;;
16665;SDS011;8446;50.998;6.250;2022-11-15T11:19:21;1.47;;;0.80;;
16665;SDS011;8446;50.998;6.250;2022-11-15T11:21:53;5.57;;;1.00;;
16665;SDS011;8446;50.998;6.250;2022-11-15T11:24:25;2.30;;;1.10;;
16665;SDS011;8446;50.998;6.250;2022-11-15T11:26:59;3.60;;;1.00;;
16665;SDS011;8446;50.998;6.250;2022-11-15T11:29:32;5.33;;;0.87;;
16665;SDS011;8446;50.998;6.250;2022-11-15T11:32:02;2.53;;;1.03;;
16665;SDS011;8446;50.998;6.250;2022-11-15T11:34:34;4.77;;;1.10;;
16665;SDS011;8446;50.998;6.250;2022-11-15T11:37:08;1.30;;;0.90;;
16665;SDS011;8446;50.998;6.250;2022-11-15T11:39:39;0.93;;;0.80;;
16665;SDS011;8446;50.998;6.250;2022-11-15T11:42:13;3.50;;;1.00;;
16665;SDS011;8446;50.998;6.250;2022-11-15T11:44:47;1.00;;;0.80;;
16665;SDS011;8446;50.998;6.250;2022-11-15T11:47:18;3.43;;;1.10;;
16665;SDS011;8446;50.998;6.250;2022-11-15T11:49:49;5.80;;;1.73;;
16665;SDS011;8446;50.998;6.250;2022-11-15T11:52:17;1.67;;;0.70;;
16665;SDS011;8446;50.998;6.250;2022-11-15T11:54:51;5.23;;;0.87;;
16665;SDS011;8446;50.998;6.250;2022-11-15T11:57:23;7.60;;;1.23;;
16665;SDS011;8446;50.998;6.250;2022-11-15T11:59:53;6.53;;;1.37;;
16665;SDS011;8446;50.998;6.250;2022-11-15T12:02:25;3.20;;;1.10;;
16665;SDS011;8446;50.998;6.250;2022-11-15T12:04:57;1.80;;;1.03;;
16665;SDS011;8446;50.998;6.250;2022-11-15T12:07:27;2.00;;;0.90;;
16665;SDS011;8446;50.998;6.250;2022-11-15T12:09:58;2.50;;;0.90;;
16665;SDS011;8446;50.998;6.250;2022-11-15T12:12:29;3.27;;;1.20;;
16665;SDS011;8446;50.998;6.250;2022-11-15T12:15:00;6.10;;;1.00;;
16665;SDS011;8446;50.998;6.250;2022-11-15T12:17:29;7.10;;;1.00;;
16665;SDS011;8446;50.998;6.250;2022-11-15T12:19:57;1.67;;;1.00;;
16665;SDS011;8446;50.998;6.250;2022-11-15T12:22:27;2.60;;;1.00;;
16665;SDS011;8446;50.998;6.250;2022-11-15T12:24:56;3.80;;;1.10;;
16665;SDS011;8446;50.998;6.250;2022-11-15T12:27:27;8.83;;;1.63;;
16665;SDS011;8446;50.998;6.250;2022-11-15T12:29:58;2.83;;;1.00;;
16665;SDS011;8446;50.998;6.250;2022-11-15T12:32:26;1.90;;;1.10;;
16665;SDS011;8446;50.998;6.250;2022-11-15T12:34:55;2.33;;;0.87;;
16665;SDS011;8446;50.998;6.250;2022-11-15T12:40:26;5.43;;;1.30;;
16665;SDS011;8446;50.998;6.250;2022-11-15T12:42:57;1.53;;;1.00;;
16665;SDS011;8446;50.998;6.250;2022-11-15T12:45:27;4.00;;;0.90;;
16665;SDS011;8446;50.998;6.250;2022-11-15T12:47:56;4.93;;;0.93;;
16665;SDS011;8446;50.998;6.250;2022-11-15T12:50:52;3.23;;;1.07;;
16665;SDS011;8446;50.998;6.250;2022-11-15T12:53:25;6.97;;;1.60;;
16665;SDS011;8446;50.998;6.250;2022-11-15T12:56:08;6.40;;;1.37;;
16665;SDS011;8446;50.998;6.250;2022-11-15T12:58:42;4.07;;;1.40;;
16665;SDS011;8446;50.998;6.250;2022-11-15T13:01:44;1.50;;;0.80;;
16665;SDS011;8446;50.998;6.250;2022-11-15T13:04:24;4.30;;;1.03;;
16665;SDS011;8446;50.998;6.250;2022-11-15T13:06:52;3.70;;;1.30;;
16665;SDS011;8446;50.998;6.250;2022-11-15T13:12:07;2.20;;;0.80;;
16665;SDS011;8446;50.998;6.250;2022-11-15T13:14:38;2.70;;;1.20;;
16665;SDS011;8446;50.998;6.250;2022-11-15T13:17:15;6.30;;;1.57;;
16665;SDS011;8446;50.998;6.250;2022-11-15T13:19:43;4.80;;;1.40;;
16665;SDS011;8446;50.998;6.250;2022-11-15T13:22:12;5.17;;;1.13;;
16665;SDS011;8446;50.998;6.250;2022-11-15T13:24:57;3.20;;;1.03;;
16665;SDS011;8446;50.998;6.250;2022-11-15T13:27:24;2.70;;;1.47;;
16665;SDS011;8446;50.998;6.250;2022-11-15T13:29:51;4.10;;;1.00;;
16665;SDS011;8446;50.998;6.250;2022-11-15T13:32:20;4.73;;;1.80;;
16665;SDS011;8446;50.998;6.250;2022-11-15T13:34:48;1.60;;;1.40;;
16665;SDS011;8446;50.998;6.250;2022-11-15T13:37:27;2.30;;;1.07;;
16665;SDS011;8446;50.998;6.250;2022-11-15T13:39:57;3.90;;;1.17;;
16665;SDS011;8446;50.998;6.250;2022-11-15T13:42:36;7.47;;;0.90;;
16665;SDS011;8446;50.998;6.250;2022-11-15T13:45:04;2.50;;;1.30;;
16665;SDS011;8446;50.998;6.250;2022-11-15T13:47:32;3.90;;;1.20;;
16665;SDS011;8446;50.998;6.250;2022-11-15T13:49:59;4.63;;;1.57;;
16665;SDS011;8446;50.998;6.250;2022-11-15T13:52:27;3.73;;;1.30;;
16665;SDS011;8446;50.998;6.250;2022-11-15T13:54:55;6.63;;;1.20;;
16665;SDS011;8446;50.998;6.250;2022-11-15T13:57:24;1.23;;;1.00;;
16665;SDS011;8446;50.998;6.250;2022-11-15T13:59:54;3.03;;;1.63;;
16665;SDS011;8446;50.998;6.250;2022-11-15T14:02:30;2.30;;;1.20;;
16665;SDS011;8446;50.998;6.250;2022-11-15T14:04:59;3.13;;;0.90;;
16665;SDS011;8446;50.998;6.250;2022-11-15T14:07:28;3.37;;;1.67;;
16665;SDS011;8446;50.998;6.250;2022-11-15T14:09:56;2.90;;;1.40;;
16665;SDS011;8446;50.998;6.250;2022-11-15T14:12:27;3.53;;;1.43;;
16665;SDS011;8446;50.998;6.250;2022-11-15T14:14:55;3.87;;;1.27;;
16665;SDS011;8446;50.998;6.250;2022-11-15T14:17:33;6.00;;;1.27;;
16665;SDS011;8446;50.998;6.250;2022-11-15T14:20:02;5.40;;;1.00;;
16665;SDS011;8446;50.998;6.250;2022-11-15T14:22:51;1.77;;;1.33;;
16665;SDS011;8446;50.998;6.250;2022-11-15T14:25:18;2.03;;;1.30;;
16665;SDS011;8446;50.998;6.250;2022-11-15T14:30:28;1.93;;;1.27;;
16665;SDS011;8446;50.998;6.250;2022-11-15T14:32:55;4.23;;;1.80;;
16665;SDS011;8446;50.998;6.250;2022-11-15T14:35:24;2.80;;;1.53;;
16665;SDS011;8446;50.998;6.250;2022-11-15T14:37:51;4.93;;;1.70;;
16665;SDS011;8446;50.998;6.250;2022-11-15T14:40:18;1.40;;;1.30;;
16665;SDS011;8446;50.998;6.250;2022-11-15T14:42:46;4.13;;;1.10;;
16665;SDS011;8446;50.998;6.250;2022-11-15T14:45:14;1.67;;;1.03;;
16665;SDS011;8446;50.998;6.250;2022-11-15T14:47:42;2.23;;;1.47;;
16665;SDS011;8446;50.998;6.250;2022-11-15T14:50:11;2.50;;;1.53;;
16665;SDS011;8446;50.998;6.250;2022-11-15T14:52:39;2.40;;;1.10;;
16665;SDS011;8446;50.998;6.250;2022-11-15T14:55:13;1.77;;;1.10;;
16665;SDS011;8446;50.998;6.250;2022-11-15T14:57:42;2.40;;;1.60;;
16665;SDS011;8446;50.998;6.250;2022-11-15T15:00:09;1.60;;;1.50;;
16665;SDS011;8446;50.998;6.250;2022-11-15T15:02:36;2.40;;;1.37;;
16665;SDS011;8446;50.998;6.250;2022-11-15T15:05:10;2.90;;;1.73;;
16665;SDS011;8446;50.998;6.250;2022-11-15T15:07:41;1.93;;;1.40;;
16665;SDS011;8446;50.998;6.250;2022-11-15T15:10:08;1.80;;;1.50;;
16665;SDS011;8446;50.998;6.250;2022-11-15T15:12:36;3.90;;;1.70;;
16665;SDS011;8446;50.998;6.250;2022-11-15T15:15:04;2.93;;;1.57;;
16665;SDS011;8446;50.998;6.250;2022-11-15T15:17:31;2.13;;;1.67;;
16665;SDS011;8446;50.998;6.250;2022-11-15T15:19:58;5.13;;;1.70;;
16665;SDS011;8446;50.998;6.250;2022-11-15T15:22:25;3.20;;;2.20;;
16665;SDS011;8446;50.998;6.250;2022-11-15T15:24:56;5.63;;;2.50;;